Latest Weather Observations for Horsham AWS

IDV60801

Issued at 5:35 pm EST Friday 25 April 2014 (issued every 30 minutes, with the page automatically refreshed every 10 minutes)

About weather observations | Map of weather stations | Latest weather observations for VIC | Other Formats
Station Details ID: 079100 Name: HORSHAM AERODROME Lat: -36.67 Lon: 142.17 Height: 133.8 m
Data from the previous 72 hours. | See also: Recent months at Horsham AWS
Date/Time
EST
Temp
°C
App
Temp
°C
Dew
Point
Rel
Hum
%
Delta-T
°C
Wind Press
QNH
hPa
Press
MSL
hPa
Rain
since 9 am
mm
Dir
 
Spd
km/h
Gust
km/h
Spd
kts
Gust
kts
25/05:30pm 17.5 13.8 4.5 42 6.2 N 13 17 7 9 1012.9 - 0.0
25/05:00pm 18.3 13.4 4.1 39 6.8 N 19 22 10 12 1013.0 - 0.0
25/04:30pm 18.7 13.5 3.7 37 7.1 NNW 20 28 11 15 1013.2 - 0.0
25/04:00pm 18.9 13.5 2.7 34 7.5 NNW 20 32 11 17 1013.4 - 0.0
25/03:30pm 19.0 13.7 2.0 32 7.8 NNW 19 28 10 15 1013.5 - 0.0
25/03:00pm 18.9 12.9 1.0 30 8.0 NNW 22 32 12 17 1014.2 1014.1 0.0
25/02:30pm 19.0 12.8 -0.4 27 8.5 N 22 35 12 19 1014.3 - 0.0
25/02:00pm 18.7 12.3 1.2 31 7.9 N 24 35 13 19 1014.6 - 0.0
25/01:30pm 18.7 12.9 2.5 34 7.5 N 22 35 12 19 1015.2 - 0.0
25/01:00pm 18.0 11.4 1.9 34 7.3 N 26 35 14 19 1016.0 - 0.0
25/12:30pm 17.7 12.0 2.8 37 6.9 N 22 33 12 18 1016.7 - 0.0
25/12:00pm 17.2 11.2 3.1 39 6.5 N 24 32 13 17 1017.2 1017.1 0.0
25/11:30am 16.9 11.5 4.3 43 6.0 NNE 22 30 12 16 1017.8 - 0.0
25/11:00am 16.1 10.7 4.5 46 5.5 NNE 22 30 12 16 1018.4 - 0.0
25/10:30am 15.1 9.8 4.8 50 4.9 NE 22 28 12 15 1019.2 - 0.0
25/10:00am 13.9 8.6 4.8 54 4.3 NE 22 28 12 15 1019.5 - 0.0
25/09:30am 12.3 7.5 5.5 63 3.2 ENE 20 24 11 13 1020.0 - 0.0
25/09:00am 10.3 5.6 5.3 71 2.3 E 19 24 10 13 1020.1 1020.1 0.0
25/08:30am 8.9 5.3 5.1 77 1.7 E 13 17 7 9 1019.9 - 0.0
25/08:00am 6.0 1.5 4.0 87 0.9 E 17 20 9 11 1019.7 - 0.0
25/07:30am 2.7 -2.3 1.4 91 0.5 E 17 19 9 10 1019.9 - 0.0
25/07:00am 3.2 -1.7 2.0 92 0.5 E 17 19 9 10 1020.0 - 0.0
25/06:30am 2.3 -2.0 0.8 90 0.6 E 13 17 7 9 1020.0 - 0.0
25/06:00am 3.4 -1.9 1.8 89 0.6 E 19 20 10 11 1019.9 1019.9 0.0
25/05:30am 3.9 -1.5 2.3 89 0.6 E 20 20 11 11 1019.8 - 0.0
25/05:00am 3.6 -1.3 2.1 90 0.6 E 17 17 9 9 1019.9 - 0.0
25/04:30am 3.6 -1.3 1.8 88 0.7 E 17 19 9 10 1019.7 - 0.0
25/04:00am 3.9 -1.4 1.9 87 0.8 E 19 20 10 11 1019.7 - 0.0
25/03:30am 5.0 0.2 2.4 83 1.1 E 17 19 9 10 1020.0 - 0.0
25/03:00am 5.7 0.6 3.0 83 1.1 ESE 19 20 10 11 1020.0 1020.0 0.0
25/02:30am 5.4 0.1 2.9 84 1.0 E 20 22 11 12 1020.1 - 0.0
25/02:00am 5.1 -0.2 2.8 85 0.9 E 20 22 11 12 1020.3 - 0.0
25/01:30am 6.2 1.1 3.2 81 1.3 ESE 19 20 10 11 1020.4 - 0.0
25/01:00am 7.0 2.0 3.6 79 1.5 ESE 19 20 10 11 1020.3 - 0.0
25/12:30am 8.0 2.5 4.0 76 1.7 ESE 22 26 12 14 1020.1 - 0.0
25/12:00am 8.1 2.6 4.1 76 1.7 ESE 22 24 12 13 1020.4 1020.4 0.0
 
Date/Time
EST
Temp
°C
App
Temp
°C
Dew
Point
Rel
Hum
%
Delta-T
°C
Wind Press
QNH
hPa
Press
MSL
hPa
Rain
since 9 am
mm
Dir
 
Spd
km/h
Gust
km/h
Spd
kts
Gust
kts
24/11:30pm 7.9 2.8 4.1 77 1.7 ESE 20 24 11 13 1020.7 - 0.0
24/11:00pm 7.5 2.4 3.9 78 1.6 ESE 20 22 11 12 1020.7 - 0.0
24/10:30pm 7.2 2.0 3.3 76 1.7 ESE 20 22 11 12 1020.9 - 0.0
24/10:00pm 7.1 2.3 2.8 74 1.8 SE 17 19 9 10 1020.8 - 0.0
24/09:30pm 8.3 3.0 3.2 70 2.2 SE 20 22 11 12 1020.5 - 0.0
24/09:00pm 7.3 2.4 2.0 69 2.2 SSE 17 19 9 10 1020.5 1020.5 0.0
24/08:30pm 7.1 2.2 1.8 69 2.2 SE 17 17 9 9 1020.3 - 0.0
24/08:00pm 8.1 3.1 1.5 63 2.7 ESE 17 19 9 10 1019.9 - 0.0
24/07:30pm 8.9 4.3 1.6 60 3.0 SE 15 17 8 9 1019.9 - 0.0
24/07:00pm 8.6 4.3 1.1 59 3.1 SE 13 15 7 8 1019.6 - 0.0
24/06:30pm 10.4 5.7 1.2 53 3.8 SSW 15 17 8 9 1019.1 - 0.0
24/06:00pm 13.1 9.3 1.8 46 4.9 SSW 11 15 6 8 1018.7 1018.6 0.0
24/05:30pm 15.6 11.5 2.1 40 6.0 S 13 17 7 9 1018.3 - 0.0
24/05:00pm 16.6 12.8 1.5 36 6.7 SW 11 19 6 10 1018.1 - 0.0
24/04:30pm 16.9 11.9 1.4 35 6.9 S 17 22 9 12 1018.0 - 0.0
24/04:00pm 17.2 12.1 0.8 33 7.2 S 17 22 9 12 1017.8 - 0.0
24/03:30pm 17.0 11.4 1.0 34 7.1 S 20 28 11 15 1017.6 - 0.0
24/03:00pm 17.4 12.8 1.4 34 7.1 S 15 24 8 13 1017.4 1017.3 0.0
24/02:30pm 17.7 12.2 2.1 35 7.1 SSE 20 32 11 17 1017.4 - 0.0
24/02:00pm 16.9 11.4 2.1 37 6.7 S 20 32 11 17 1017.3 - 0.0
24/01:30pm 17.4 11.8 3.3 39 6.6 SSW 22 32 12 17 1017.5 - 0.0
24/01:00pm 17.2 10.5 3.8 41 6.3 SSW 28 41 15 22 1017.8 - 0.0
24/12:30pm 17.5 11.8 4.8 43 6.1 SSW 24 39 13 21 1017.7 - 0.0
24/12:00pm 17.1 10.6 4.8 44 5.9 SSW 28 35 15 19 1017.9 1017.8 0.0
24/11:30am 16.4 9.8 4.1 44 5.8 SW 28 37 15 20 1017.9 - 0.0
24/11:00am 16.0 8.7 4.7 47 5.4 S 32 37 17 20 1017.7 - 0.0
24/10:30am 15.8 10.4 6.3 53 4.6 SW 24 32 13 17 1017.7 - 0.0
24/10:00am 15.4 8.7 7.4 59 4.0 SSW 32 37 17 20 1017.6 - 0.0
24/09:30am 14.7 8.3 8.6 67 3.1 SSW 32 37 17 20 1017.4 - 0.0
24/09:01am 14.4 6.8 9.2 71 2.7 SSW 39 50 21 27 1017.1 - 0.0
24/09:00am 14.1 6.5 8.9 71 2.6 SSW 39 50 21 27 1017.1 1017.0 0.0
24/08:37am 13.6 8.4 10.4 81 1.7 SSW 28 48 15 26 1016.6 - 0.0
24/08:30am 13.7 9.9 11.0 84 1.4 SSW 22 32 12 17 1016.4 - 0.0
24/08:15am 13.5 9.7 11.2 86 1.2 SW 22 28 12 15 1015.9 - 0.0
24/08:00am 12.8 9.6 11.2 90 0.8 W 19 24 10 13 1015.5 - 0.0
24/07:30am 12.7 9.0 10.2 85 1.3 W 20 28 11 15 1014.8 - 0.0
24/07:00am 12.7 8.7 10.4 86 1.2 W 22 32 12 17 1014.3 - 0.0
24/06:30am 8.8 5.1 6.4 85 1.1 NNW 15 17 8 9 1013.7 - 0.0
24/06:00am 8.9 5.2 6.2 83 1.2 NNW 15 17 8 9 1013.6 1013.6 0.0
24/05:30am 7.6 4.4 4.9 83 1.2 NW 11 13 6 7 1013.6 - 0.0
24/05:00am 6.6 4.5 3.8 82 1.2 NNW 4 7 2 4 1013.2 - 0.0
24/04:30am 6.5 4.3 3.5 81 1.3 NNW 4 7 2 4 1012.6 - 0.0
24/04:00am 7.8 4.0 3.8 76 1.7 NW 13 17 7 9 1012.6 - 0.0
24/03:30am 8.8 5.1 4.2 73 2.0 NW 13 17 7 9 1012.7 - 0.0
24/03:00am 10.4 5.6 4.5 67 2.7 NW 19 22 10 12 1012.7 1012.6 0.0
24/02:30am 9.9 6.4 5.3 73 2.1 NW 13 17 7 9 1012.9 - 0.0
24/02:00am 7.9 4.1 4.1 77 1.7 NNW 13 13 7 7 1013.2 - 0.0
24/01:30am 6.6 3.0 2.7 76 1.6 NNW 11 13 6 7 1013.2 - 0.0
24/01:00am 6.1 2.4 2.6 78 1.4 NNW 11 13 6 7 1013.3 - 0.0
24/12:30am 6.6 2.9 2.3 74 1.8 NW 11 13 6 7 1013.2 - 0.0
24/12:00am 7.4 4.4 2.1 69 2.2 NW 7 9 4 5 1013.4 1013.4 0.0
 
Date/Time
EST
Temp
°C
App
Temp
°C
Dew
Point
Rel
Hum
%
Delta-T
°C
Wind Press
QNH
hPa
Press
MSL
hPa
Rain
since 9 am
mm
Dir
 
Spd
km/h
Gust
km/h
Spd
kts
Gust
kts
23/11:30pm 7.9 3.9 2.8 70 2.2 NNW 13 13 7 7 1013.7 - 0.0
23/11:00pm 9.2 5.7 3.4 67 2.5 NNW 11 13 6 7 1013.8 - 0.0
23/10:30pm 9.8 6.3 3.5 65 2.8 NNW 11 13 6 7 1014.0 - 0.0
23/10:00pm 10.1 6.6 3.6 64 2.9 NNW 11 13 6 7 1014.3 - 0.0
23/09:30pm 10.8 7.7 3.6 61 3.2 NW 9 9 5 5 1014.3 - 0.0
23/09:00pm 10.9 7.1 3.7 61 3.2 NNW 13 15 7 8 1014.3 1014.2 0.0
23/08:30pm 10.5 6.7 3.8 63 3.0 NNW 13 15 7 8 1014.5 - 0.0
23/08:00pm 11.5 8.1 4.0 60 3.4 NNW 11 13 6 7 1014.5 - 0.0
23/07:30pm 11.9 8.9 3.9 58 3.6 NNW 9 11 5 6 1014.4 - 0.0
23/07:00pm 12.1 8.2 3.3 55 3.9 NW 13 15 7 8 1014.3 - 0.0
23/06:30pm 12.9 8.7 3.6 53 4.2 NW 15 17 8 9 1013.9 - 0.0
23/06:00pm 14.1 10.2 3.6 49 4.8 NW 13 15 7 8 1013.7 1013.7 0.0
23/05:30pm 16.9 13.0 3.6 41 6.2 WNW 13 15 7 8 1013.5 - 0.0
23/05:00pm 18.8 14.0 2.6 34 7.5 NW 17 24 9 13 1013.4 - 0.0
23/04:30pm 19.2 14.5 3.4 35 7.5 WNW 17 24 9 13 1013.7 - 0.0
23/04:00pm 18.9 14.2 3.1 35 7.4 NW 17 22 9 12 1013.8 - 0.0
23/03:30pm 18.9 14.9 4.7 39 6.9 WNW 15 20 8 11 1014.0 - 0.0
23/03:00pm 19.3 15.6 4.6 38 7.1 NW 13 20 7 11 1014.2 1014.1 0.0
23/02:30pm 19.9 15.9 4.8 37 7.4 WNW 15 22 8 12 1014.6 - 0.0
23/02:00pm 18.7 14.9 5.9 43 6.3 WNW 15 22 8 12 1014.9 - 0.0
23/01:30pm 18.2 13.6 5.4 43 6.3 NW 19 24 10 13 1015.2 - 0.0
23/01:00pm 18.1 14.0 6.0 45 6.0 WNW 17 24 9 13 1015.8 - 0.0
23/12:30pm 17.1 13.1 5.1 45 5.8 WNW 15 20 8 11 1016.3 - 0.0
23/12:00pm 16.6 13.6 5.9 49 5.2 WSW 11 19 6 10 1016.7 1016.6 0.0
23/11:30am 16.3 12.8 5.3 48 5.3 W 13 19 7 10 1017.5 - 0.0
23/11:00am 15.7 13.0 7.2 57 4.2 W 11 17 6 9 1017.9 - 0.0
23/10:30am 14.7 12.5 8.0 64 3.4 WNW 9 13 5 7 1018.0 - 0.0
23/10:00am 13.4 11.6 9.3 76 2.1 W 9 11 5 6 1018.3 - 0.0
23/09:30am 12.2 10.6 10.3 88 1.0 WSW 9 11 5 6 1018.3 - 0.0
23/09:00am 10.2 8.5 9.7 97 0.3 WSW 9 13 5 7 1018.3 1018.2 0.0
23/08:30am 8.2 6.4 7.9 98 0.1 SSW 7 9 4 5 1018.1 - 0.0
23/08:00am 5.6 3.2 5.3 98 0.1 SW 7 9 4 5 1017.7 - 0.0
23/07:54am 5.4 2.6 5.1 98 0.1 SW 9 13 5 7 1017.8 - 0.0
23/07:30am 4.3 0.1 3.9 97 0.2 WSW 15 19 8 10 1018.0 - 0.0
23/07:00am 3.5 -0.1 3.1 97 0.2 WSW 11 13 6 7 1017.4 - 0.0
23/06:59am 3.6 0.0 3.2 97 0.2 WSW 11 13 6 7 1017.4 - 0.0
23/06:30am 5.3 2.8 4.9 97 0.2 WSW 7 7 4 4 1017.2 - 0.0
23/06:00am 5.8 3.4 5.4 97 0.2 W 7 9 4 5 1017.1 1017.0 0.0
23/05:30am 4.8 2.2 4.2 96 0.3 WNW 7 48 4 26 1017.1 - 0.0
23/05:00am 3.2 1.6 2.5 95 0.3 CALM 0 0 0 0 1017.0 - 0.0
23/04:30am 4.4 1.9 3.5 94 0.4 W 6 7 3 4 1017.0 - 0.0
23/04:00am 7.1 4.6 6.4 95 0.3 WSW 9 11 5 6 1017.0 - 0.0
23/03:30am 6.2 3.1 5.6 96 0.3 WNW 11 13 6 7 1017.2 - 0.0
23/03:00am 4.2 1.0 3.2 93 0.4 NW 9 9 5 5 1017.4 1017.3 0.0
23/02:30am 4.4 2.9 2.8 89 0.7 CALM 0 0 0 0 1017.0 - 0.0
23/02:00am 7.4 5.2 6.0 91 0.6 SSW 7 9 4 5 1017.1 - 0.0
23/01:30am 6.5 5.4 5.3 92 0.5 CALM 0 0 0 0 1017.5 - 0.0
23/01:00am 6.2 3.9 4.8 91 0.6 SSE 6 6 3 3 1017.6 - 0.0
23/12:30am 6.8 3.3 5.3 90 0.7 SSW 13 15 7 8 1017.7 - 0.0
23/12:00am 8.2 5.2 6.0 86 1.0 SW 11 13 6 7 1017.7 1017.6 0.0
 
Date/Time
EST
Temp
°C
App
Temp
°C
Dew
Point
Rel
Hum
%
Delta-T
°C
Wind Press
QNH
hPa
Press
MSL
hPa
Rain
since 9 am
mm
Dir
 
Spd
km/h
Gust
km/h
Spd
kts
Gust
kts
22/11:30pm 9.1 6.6 6.4 83 1.3 WSW 9 11 5 6 1018.0 - 0.0
22/11:00pm 10.0 8.0 6.9 81 1.5 SSW 7 9 4 5 1018.2 - 0.0
22/10:30pm 10.1 7.7 6.8 80 1.6 S 9 11 5 6 1018.2 - 0.0
22/10:00pm 10.9 8.2 7.2 78 1.8 SSW 11 13 6 7 1018.0 - 0.0
22/09:30pm 10.9 7.7 7.0 77 1.9 S 13 13 7 7 1017.9 - 0.0
22/09:00pm 11.3 7.8 7.4 77 1.9 S 15 20 8 11 1017.8 1017.7 0.0
22/08:30pm 10.9 7.5 7.6 80 1.6 S 15 17 8 9 1017.5 - 0.0
22/08:00pm 12.0 7.9 7.7 75 2.1 SSW 19 20 10 11 1017.3 - 0.0
22/07:30pm 11.9 8.4 7.0 72 2.4 SSW 15 17 8 9 1017.1 - 0.0
22/07:00pm 13.1 9.7 7.5 69 2.8 SSW 15 15 8 8 1016.7 - 0.0
22/06:30pm 13.8 10.4 7.8 67 3.0 SSW 15 17 8 9 1016.4 - 0.0
22/06:00pm 15.1 11.7 7.6 61 3.7 SSW 15 17 8 9 1016.0 1015.9 0.0

Other Formats:

Comma delimited format used in spreadsheet applications
http://www.bom.gov.au/fwo/IDV60801/IDV60801.95839.axf

JavaScript Object Notation format (JSON) in row-major order
http://www.bom.gov.au/fwo/IDV60801/IDV60801.95839.json